createdAt,value
2022-11-13T00:02:15.817Z,102856.59
2022-11-13T00:05:01.149Z,102859.66
2022-11-13T00:07:46.810Z,102856.00
2022-11-13T00:10:32.259Z,102852.50
2022-11-13T00:13:17.370Z,102852.53
2022-11-13T00:16:05.667Z,102850.72
2022-11-13T00:18:50.776Z,102849.19
2022-11-13T00:21:35.977Z,102850.41
2022-11-13T00:24:20.954Z,102853.38
2022-11-13T00:27:06.477Z,102857.78
2022-11-13T00:29:51.800Z,102844.13
2022-11-13T00:32:37.955Z,102831.22
2022-11-13T00:35:23.051Z,102838.41
2022-11-13T00:38:08.121Z,102832.84
2022-11-13T00:40:53.341Z,102839.88
2022-11-13T00:43:38.661Z,102833.88
2022-11-13T00:46:23.995Z,102833.00
2022-11-13T00:49:09.898Z,102835.72
2022-11-13T00:51:55.278Z,102826.47
2022-11-13T00:54:40.466Z,102825.41
2022-11-13T00:57:25.971Z,102829.50
2022-11-13T01:00:12.128Z,102815.94
2022-11-13T01:03:00.518Z,102815.34
2022-11-13T01:05:46.803Z,102807.53
2022-11-13T01:08:31.902Z,102810.84
2022-11-13T01:11:19.974Z,102824.44
2022-11-13T01:14:05.007Z,102818.50
2022-11-13T01:16:50.122Z,102810.78
2022-11-13T01:19:35.341Z,102811.44
2022-11-13T01:22:20.502Z,102809.59
2022-11-13T01:25:06.487Z,102797.34
2022-11-13T01:27:51.761Z,102794.78
2022-11-13T01:30:39.198Z,102791.38
2022-11-13T01:33:24.210Z,102797.06
2022-11-13T01:36:13.840Z,102788.78
2022-11-13T01:38:59.437Z,102783.88
2022-11-13T01:41:44.664Z,102781.03
2022-11-13T01:44:56.291Z,102771.91
2022-11-13T01:47:41.528Z,102762.84
2022-11-13T01:50:26.671Z,102765.19
2022-11-13T01:53:12.789Z,102756.88
2022-11-13T01:55:58.004Z,102758.31
2022-11-13T01:58:51.453Z,102753.81
2022-11-13T02:01:36.878Z,102743.03
2022-11-13T02:04:23.188Z,102740.03
2022-11-13T02:07:11.558Z,102735.13
2022-11-13T02:09:58.541Z,102736.22
2022-11-13T02:12:49.514Z,102746.31
2022-11-13T02:15:35.776Z,102734.56
2022-11-13T02:18:24.158Z,102731.41
2022-11-13T02:21:09.497Z,102724.19
2022-11-13T02:24:09.009Z,102727.44
2022-11-13T02:26:58.522Z,102730.03
2022-11-13T02:29:44.009Z,102725.63
2022-11-13T02:32:29.890Z,102728.56
2022-11-13T02:35:18.032Z,102721.19
2022-11-13T02:38:06.078Z,102729.63
2022-11-13T02:40:51.004Z,102726.97
2022-11-13T02:43:36.233Z,102720.41
2022-11-13T02:46:21.684Z,102726.06
2022-11-13T02:49:07.704Z,102727.53
2022-11-13T02:51:53.087Z,102724.94
2022-11-13T02:54:38.132Z,102732.06
2022-11-13T02:57:23.770Z,102724.63
2022-11-13T03:00:13.850Z,102729.44
2022-11-13T03:02:59.873Z,102733.63
2022-11-13T03:05:49.898Z,102734.59
2022-11-13T03:08:36.194Z,102736.13
2022-11-13T03:11:22.273Z,102733.81
2022-11-13T03:14:07.346Z,102734.28
2022-11-13T03:16:52.388Z,102716.41
2022-11-13T03:19:37.885Z,102730.97
2022-11-13T03:22:23.369Z,102729.28
2022-11-13T03:25:10.789Z,102726.13
2022-11-13T03:27:56.903Z,102723.25
2022-11-13T03:30:42.391Z,102723.56
2022-11-13T03:33:27.912Z,102721.25
2022-11-13T03:36:13.103Z,102709.19
2022-11-13T03:38:59.359Z,102716.16
2022-11-13T03:41:44.560Z,102719.03
2022-11-13T03:44:30.026Z,102704.44
2022-11-13T03:47:15.664Z,102705.88
2022-11-13T03:50:00.868Z,102704.09
2022-11-13T03:52:46.575Z,102695.91
2022-11-13T03:55:32.041Z,102696.31
2022-11-13T03:58:17.578Z,102702.53
2022-11-13T04:01:02.752Z,102702.75
2022-11-13T04:03:48.101Z,102688.44
2022-11-13T04:06:33.479Z,102695.78
2022-11-13T04:09:18.874Z,102693.66
2022-11-13T04:12:04.408Z,102693.25
2022-11-13T04:14:49.862Z,102690.03
2022-11-13T04:17:35.279Z,102684.13
2022-11-13T04:20:20.891Z,102690.72
2022-11-13T04:23:11.386Z,102679.84
2022-11-13T04:25:57.251Z,102684.00
2022-11-13T04:28:42.849Z,102673.94
2022-11-13T04:31:27.853Z,102674.47
2022-11-13T04:34:13.325Z,102670.75
2022-11-13T04:36:58.903Z,102665.38
2022-11-13T04:39:44.200Z,102664.00
2022-11-13T04:42:48.160Z,102664.56
2022-11-13T04:45:34.301Z,102671.59
2022-11-13T04:48:19.544Z,102671.47
2022-11-13T04:51:05.359Z,102680.41
2022-11-13T04:53:50.858Z,102680.16
2022-11-13T04:56:36.352Z,102673.50
2022-11-13T04:59:21.892Z,102670.56
2022-11-13T05:02:07.518Z,102670.81
2022-11-13T05:04:53.000Z,102668.50
2022-11-13T05:07:38.564Z,102663.75
2022-11-13T05:10:23.694Z,102656.59
2022-11-13T05:13:09.093Z,102663.34
2022-11-13T05:16:04.089Z,102671.69
2022-11-13T05:18:49.470Z,102673.13
2022-11-13T05:21:38.668Z,102669.06
2022-11-13T05:24:23.839Z,102669.50
2022-11-13T05:27:14.203Z,102677.00
2022-11-13T05:30:02.062Z,102679.66
2022-11-13T05:32:47.409Z,102667.22
2022-11-13T05:35:32.898Z,102659.59
2022-11-13T05:38:18.348Z,102657.94
2022-11-13T05:41:07.616Z,102655.63
2022-11-13T05:43:58.049Z,102655.22
2022-11-13T05:46:44.500Z,102653.06
2022-11-13T05:49:30.109Z,102653.47
2022-11-13T05:52:15.582Z,102647.81
2022-11-13T05:55:00.937Z,102650.84
2022-11-13T05:57:46.430Z,102635.56
2022-11-13T06:00:31.825Z,102631.69
2022-11-13T06:03:17.287Z,102630.25
2022-11-13T06:06:02.537Z,102636.72
2022-11-13T06:08:49.279Z,102627.47
2022-11-13T06:11:34.774Z,102621.53
2022-11-13T06:14:19.770Z,102619.53
2022-11-13T06:17:05.166Z,102617.59
2022-11-13T06:19:50.489Z,102620.25
2022-11-13T06:22:35.993Z,102622.03
2022-11-13T06:25:21.574Z,102618.94
2022-11-13T06:28:06.777Z,102614.34
2022-11-13T06:30:52.253Z,102607.38
2022-11-13T06:33:39.173Z,102611.34
2022-11-13T06:36:29.578Z,102611.53
2022-11-13T06:39:14.947Z,102621.69
2022-11-13T06:42:00.245Z,102613.44
2022-11-13T06:44:45.684Z,102603.81
2022-11-13T06:47:31.267Z,102608.16
2022-11-13T06:50:16.654Z,102612.88
2022-11-13T06:53:01.771Z,102616.84
2022-11-13T06:55:50.242Z,102617.00
2022-11-13T06:58:35.990Z,102616.63
2022-11-13T07:01:23.804Z,102615.09
2022-11-13T07:04:12.470Z,102612.66
2022-11-13T07:06:57.741Z,102614.50
2022-11-13T07:09:43.612Z,102614.50
2022-11-13T07:12:28.743Z,102624.06
2022-11-13T07:15:16.512Z,102623.28
2022-11-13T07:18:03.176Z,102624.09
2022-11-13T07:20:48.760Z,102622.47
2022-11-13T07:23:37.000Z,102620.91
2022-11-13T07:26:22.839Z,102615.44
2022-11-13T07:29:08.207Z,102618.84
2022-11-13T07:31:54.367Z,102621.78
2022-11-13T07:34:39.478Z,102615.03
2022-11-13T07:37:24.750Z,102607.25
2022-11-13T07:40:11.410Z,102604.72
2022-11-13T07:42:59.023Z,102615.34
2022-11-13T07:45:44.508Z,102606.88
2022-11-13T07:48:30.500Z,102612.03
2022-11-13T07:51:16.307Z,102607.06
2022-11-13T07:54:01.565Z,102603.59
2022-11-13T07:56:47.402Z,102594.44
2022-11-13T07:59:32.698Z,102596.44
2022-11-13T08:02:21.137Z,102593.78
2022-11-13T08:05:10.563Z,102601.44
2022-11-13T08:07:56.238Z,102604.22
2022-11-13T08:10:42.352Z,102601.59
2022-11-13T08:13:27.905Z,102602.56
2022-11-13T08:16:13.185Z,102598.50
2022-11-13T08:18:58.612Z,102601.28
2022-11-13T08:21:44.079Z,102600.97
2022-11-13T08:24:29.215Z,102583.47
2022-11-13T08:27:14.570Z,102586.09
2022-11-13T08:29:59.844Z,102583.66
2022-11-13T08:32:45.634Z,102584.84
2022-11-13T08:35:31.378Z,102579.94
2022-11-13T08:38:16.961Z,102580.25
2022-11-13T08:41:08.957Z,102572.28
2022-11-13T08:43:55.032Z,102571.34
2022-11-13T08:46:40.445Z,102568.41
2022-11-13T08:49:25.941Z,102568.13
2022-11-13T08:52:11.080Z,102559.63
2022-11-13T08:54:56.545Z,102554.66
2022-11-13T08:57:42.152Z,102542.88
2022-11-13T09:00:31.711Z,102539.69
2022-11-13T09:03:17.283Z,102541.63
2022-11-13T09:06:07.498Z,102539.31
2022-11-13T09:08:52.998Z,102527.97
2022-11-13T09:11:38.523Z,102527.06
2022-11-13T09:14:25.092Z,102529.19
2022-11-13T09:17:10.340Z,102527.13
2022-11-13T09:19:59.496Z,102527.63
2022-11-13T09:22:47.281Z,102523.63
2022-11-13T09:25:37.531Z,102528.47
2022-11-13T09:28:23.537Z,102528.25
2022-11-13T09:31:08.760Z,102519.22
2022-11-13T09:33:54.140Z,102528.59
2022-11-13T09:36:39.403Z,102528.31
2022-11-13T09:39:24.941Z,102527.41
2022-11-13T09:42:13.196Z,102527.13
2022-11-13T09:45:17.101Z,102530.91
2022-11-13T09:48:35.490Z,102528.28
2022-11-13T09:51:26.458Z,102525.97
2022-11-13T09:54:14.382Z,102525.63
2022-11-13T09:57:29.221Z,102521.53
2022-11-13T10:00:19.217Z,102518.81
2022-11-13T10:03:10.082Z,102511.47
2022-11-13T10:06:21.175Z,102517.19
2022-11-13T10:09:25.384Z,102514.72
2022-11-13T10:12:13.943Z,102519.97
2022-11-13T10:15:03.582Z,102519.31
2022-11-13T10:17:55.250Z,102514.38
2022-11-13T10:20:50.462Z,102525.19
2022-11-13T10:23:38.122Z,102521.28
2022-11-13T10:26:27.215Z,102525.66
2022-11-13T10:29:18.013Z,102519.59
2022-11-13T10:32:27.682Z,102509.28
2022-11-13T10:35:45.064Z,102507.31
2022-11-13T10:38:44.505Z,102497.44
2022-11-13T10:41:30.208Z,102495.53
2022-11-13T10:44:35.414Z,102493.84
2022-11-13T10:47:49.110Z,102486.09
2022-11-13T10:50:31.014Z,102489.47
2022-11-13T10:53:18.353Z,102482.81
2022-11-13T10:56:31.193Z,102481.56
2022-11-13T10:59:19.524Z,102483.81
2022-11-13T11:02:22.441Z,102481.94
2022-11-13T11:05:21.389Z,102478.06
2022-11-13T11:08:10.921Z,102473.56
2022-11-13T11:11:26.595Z,102471.19
2022-11-13T11:14:22.367Z,102464.19
2022-11-13T11:17:11.033Z,102462.25
2022-11-13T11:20:01.928Z,102465.53
2022-11-13T11:22:53.056Z,102456.69
2022-11-13T11:25:46.337Z,102444.31
2022-11-13T11:28:49.601Z,102435.84
2022-11-13T11:31:55.732Z,102433.63
2022-11-13T11:34:45.896Z,102435.00
2022-11-13T11:37:41.480Z,102432.75
2022-11-13T11:40:36.236Z,102422.72
2022-11-13T11:43:34.115Z,102419.28
2022-11-13T11:46:23.859Z,102428.94
2022-11-13T11:49:10.741Z,102424.88
2022-11-13T11:52:19.721Z,102423.03
2022-11-13T11:55:31.396Z,102415.25
2022-11-13T11:58:37.849Z,102416.03
2022-11-13T12:01:38.012Z,102406.69
2022-11-13T12:04:29.053Z,102404.53
2022-11-13T12:07:37.898Z,102404.34
2022-11-13T12:10:26.219Z,102397.56
2022-11-13T12:13:50.296Z,102398.50
2022-11-13T12:17:02.067Z,102388.91
2022-11-13T12:20:07.913Z,102388.47
2022-11-13T12:23:08.368Z,102373.78
2022-11-13T12:26:07.724Z,102380.66
2022-11-13T12:29:08.735Z,102372.28
2022-11-13T12:32:21.948Z,102367.00
2022-11-13T12:35:16.852Z,102351.84
2022-11-13T12:38:07.804Z,102357.72
2022-11-13T12:41:16.450Z,102348.91
2022-11-13T12:44:16.602Z,102355.22
2022-11-13T12:47:02.165Z,102349.13
2022-11-13T12:49:58.165Z,102345.25
2022-11-13T12:52:43.393Z,102343.06
2022-11-13T12:55:32.155Z,102347.91
2022-11-13T12:58:22.115Z,102337.75
2022-11-13T13:01:17.930Z,102334.16
2022-11-13T13:04:15.448Z,102340.47
2022-11-13T13:07:31.383Z,102333.84
2022-11-13T13:10:59.399Z,102331.44
2022-11-13T13:13:56.514Z,102327.88
2022-11-13T13:16:41.658Z,102317.75
2022-11-13T13:19:32.706Z,102316.09
2022-11-13T13:22:26.148Z,102315.28
2022-11-13T13:25:32.015Z,102323.47
2022-11-13T13:28:24.794Z,102321.78
2022-11-13T13:31:12.582Z,102317.72
2022-11-13T13:34:20.741Z,102315.56
2022-11-13T13:37:25.043Z,102312.50
2022-11-13T13:40:59.881Z,102303.69
2022-11-13T13:44:02.312Z,102304.75
2022-11-13T13:46:47.932Z,102306.16
2022-11-13T13:49:33.863Z,102302.69
2022-11-13T13:52:27.529Z,102304.75
2022-11-13T13:55:43.729Z,102296.59
2022-11-13T13:58:37.165Z,102303.06
2022-11-13T14:01:28.928Z,102301.34
2022-11-13T14:04:19.555Z,102300.91
2022-11-13T14:07:27.645Z,102291.00
2022-11-13T14:10:13.122Z,102289.19
2022-11-13T14:12:58.512Z,102287.25
2022-11-13T14:15:43.763Z,102276.34
2022-11-13T14:18:29.396Z,102273.94
2022-11-13T14:21:21.073Z,102268.16
2022-11-13T14:24:14.556Z,102273.91
2022-11-13T14:27:20.353Z,102275.91
2022-11-13T14:30:09.813Z,102268.94
2022-11-13T14:32:55.602Z,102264.38
2022-11-13T14:35:41.042Z,102272.63
2022-11-13T14:38:29.721Z,102268.22
2022-11-13T14:41:22.588Z,102274.06
2022-11-13T14:44:11.576Z,102270.56
2022-11-13T14:47:03.338Z,102265.41
2022-11-13T14:49:49.004Z,102258.91
2022-11-13T14:52:34.059Z,102273.84
2022-11-13T14:55:34.472Z,102266.53
2022-11-13T14:58:35.800Z,102262.13
2022-11-13T15:01:23.725Z,102274.81
2022-11-13T15:04:09.161Z,102268.78
2022-11-13T15:06:58.976Z,102273.63
2022-11-13T15:09:44.260Z,102267.94
2022-11-13T15:12:29.518Z,102272.75
2022-11-13T15:15:17.931Z,102262.66
2022-11-13T15:18:03.947Z,102259.34
2022-11-13T15:20:49.270Z,102256.03
2022-11-13T15:23:35.012Z,102256.34
2022-11-13T15:26:20.479Z,102243.00
2022-11-13T15:29:06.537Z,102245.31
2022-11-13T15:31:51.796Z,102241.09
2022-11-13T15:34:37.314Z,102237.44
2022-11-13T15:37:22.409Z,102237.06
2022-11-13T15:40:08.589Z,102236.66
2022-11-13T15:42:54.141Z,102236.59
2022-11-13T15:45:44.045Z,102218.41
2022-11-13T15:48:29.884Z,102210.63
2022-11-13T15:51:22.828Z,102211.66
2022-11-13T15:54:26.790Z,102210.63
2022-11-13T15:57:22.107Z,102210.66
2022-11-13T16:00:14.982Z,102222.72
2022-11-13T16:03:00.348Z,102219.41
2022-11-13T16:05:45.510Z,102219.59
2022-11-13T16:08:30.915Z,102216.81
2022-11-13T16:11:18.172Z,102204.31
2022-11-13T16:14:03.571Z,102203.28
2022-11-13T16:16:50.620Z,102203.78
2022-11-13T16:19:37.726Z,102206.94
2022-11-13T16:22:27.141Z,102204.09
2022-11-13T16:25:17.199Z,102201.94
2022-11-13T16:28:02.644Z,102206.56
2022-11-13T16:30:49.353Z,102200.03
2022-11-13T16:33:34.493Z,102198.56
2022-11-13T16:36:22.397Z,102202.97
2022-11-13T16:39:16.105Z,102197.41
2022-11-13T16:42:02.075Z,102199.28
2022-11-13T16:44:47.364Z,102190.31
2022-11-13T16:47:32.786Z,102194.44
2022-11-13T16:50:23.756Z,102201.19
2022-11-13T16:53:10.037Z,102192.81
2022-11-13T16:55:55.589Z,102191.31
2022-11-13T16:58:42.152Z,102195.94
2022-11-13T17:01:27.280Z,102193.72
2022-11-13T17:04:14.883Z,102198.56
2022-11-13T17:07:00.440Z,102188.75
2022-11-13T17:09:46.415Z,102195.94
2022-11-13T17:12:31.996Z,102196.00
2022-11-13T17:15:17.471Z,102194.97
2022-11-13T17:18:03.004Z,102195.22
2022-11-13T17:20:50.982Z,102191.09
2022-11-13T17:23:36.194Z,102179.84
2022-11-13T17:26:22.575Z,102180.44
2022-11-13T17:29:08.072Z,102174.53
2022-11-13T17:31:53.466Z,102159.38
2022-11-13T17:34:38.770Z,102164.56
2022-11-13T17:37:25.238Z,102165.28
2022-11-13T17:40:11.795Z,102156.09
2022-11-13T17:42:57.243Z,102154.94
2022-11-13T17:45:42.687Z,102149.88
2022-11-13T17:48:31.531Z,102153.31
2022-11-13T17:51:17.013Z,102149.94
2022-11-13T17:54:02.442Z,102143.03
2022-11-13T17:56:47.847Z,102130.50
2022-11-13T17:59:32.983Z,102145.31
2022-11-13T18:02:18.425Z,102132.59
2022-11-13T18:05:04.672Z,102135.25
2022-11-13T18:07:49.980Z,102137.09
2022-11-13T18:10:38.543Z,102140.47
2022-11-13T18:13:24.931Z,102144.06
2022-11-13T18:16:14.551Z,102142.25
2022-11-13T18:19:01.314Z,102133.50
2022-11-13T18:21:46.808Z,102131.31
2022-11-13T18:24:32.258Z,102128.34
2022-11-13T18:27:17.474Z,102125.38
2022-11-13T18:30:03.428Z,102128.31
2022-11-13T18:32:48.614Z,102121.72
2022-11-13T18:35:33.898Z,102126.22
2022-11-13T18:38:19.167Z,102130.59
2022-11-13T18:41:08.002Z,102140.59
2022-11-13T18:43:53.361Z,102134.53
2022-11-13T18:46:39.483Z,102131.41
2022-11-13T18:49:24.962Z,102125.00
2022-11-13T18:52:10.642Z,102124.19
2022-11-13T18:54:55.842Z,102114.03
2022-11-13T18:57:41.055Z,102121.16
2022-11-13T19:00:26.557Z,102115.16
2022-11-13T19:03:12.184Z,102108.56
2022-11-13T19:05:57.185Z,102099.88
2022-11-13T19:08:43.481Z,102111.31
2022-11-13T19:11:30.403Z,102113.94
2022-11-13T19:14:17.548Z,102112.63
2022-11-13T19:17:02.732Z,102109.91
2022-11-13T19:19:48.122Z,102103.38
2022-11-13T19:22:33.216Z,102099.53
2022-11-13T19:25:18.910Z,102103.38
2022-11-13T19:28:04.697Z,102104.03
2022-11-13T19:30:54.438Z,102103.88
2022-11-13T19:33:40.580Z,102099.75
2022-11-13T19:36:28.276Z,102102.25
2022-11-13T19:39:13.836Z,102094.50
2022-11-13T19:41:59.080Z,102097.94
2022-11-13T19:44:44.483Z,102095.75
2022-11-13T19:47:30.106Z,102097.16
2022-11-13T19:50:16.047Z,102100.84
2022-11-13T19:53:01.249Z,102092.28
2022-11-13T19:55:56.240Z,102084.81
2022-11-13T19:58:44.232Z,102074.53
2022-11-13T20:01:32.101Z,102075.34
2022-11-13T20:04:17.832Z,102088.13
2022-11-13T20:07:03.397Z,102082.81
2022-11-13T20:09:48.909Z,102079.06
2022-11-13T20:12:34.148Z,102070.88
2022-11-13T20:15:19.551Z,102089.41
2022-11-13T20:18:05.051Z,102094.13
2022-11-13T20:20:54.462Z,102085.38
2022-11-13T20:23:41.368Z,102094.00
2022-11-13T20:26:27.517Z,102093.03
2022-11-13T20:29:12.884Z,102089.56
2022-11-13T20:31:59.327Z,102089.13
2022-11-13T20:34:44.587Z,102080.91
2022-11-13T20:37:29.952Z,102082.00
2022-11-13T20:40:15.641Z,102087.22
2022-11-13T20:43:00.737Z,102089.81
2022-11-13T20:45:45.917Z,102083.09
2022-11-13T20:48:31.532Z,102078.38
2022-11-13T20:51:20.402Z,102070.69
2022-11-13T20:54:05.975Z,102062.47
2022-11-13T20:56:51.290Z,102063.78
2022-11-13T20:59:36.742Z,102065.63
2022-11-13T21:02:21.830Z,102055.66
2022-11-13T21:05:08.160Z,102046.88
2022-11-13T21:07:53.822Z,102053.16
2022-11-13T21:10:38.858Z,102060.00
2022-11-13T21:13:24.367Z,102060.31
2022-11-13T21:16:09.890Z,102050.69
2022-11-13T21:18:57.236Z,102048.91
2022-11-13T21:21:42.740Z,102050.66
2022-11-13T21:24:28.182Z,102045.25
2022-11-13T21:27:13.708Z,102041.44
2022-11-13T21:29:59.431Z,102034.69
2022-11-13T21:32:45.038Z,102022.84
2022-11-13T21:35:30.758Z,102025.75
2022-11-13T21:38:15.815Z,102033.66
2022-11-13T21:41:21.872Z,102029.91
2022-11-13T21:44:10.486Z,102025.13
2022-11-13T21:46:56.109Z,102022.91
2022-11-13T21:49:41.567Z,102020.09
2022-11-13T21:52:26.859Z,102014.13
2022-11-13T21:55:12.176Z,102015.44
2022-11-13T21:57:57.699Z,102013.38
2022-11-13T22:00:44.437Z,102007.81
2022-11-13T22:03:29.728Z,102019.16
2022-11-13T22:06:24.293Z,102020.66
2022-11-13T22:09:18.271Z,102019.38
2022-11-13T22:12:03.725Z,102008.69
2022-11-13T22:14:49.227Z,102003.84
2022-11-13T22:17:34.580Z,102000.75
2022-11-13T22:20:20.037Z,101998.69
2022-11-13T22:23:06.141Z,101991.97
2022-11-13T22:25:55.755Z,101993.50
2022-11-13T22:28:45.232Z,101990.81
2022-11-13T22:31:31.532Z,101980.91
2022-11-13T22:34:18.207Z,101974.22
2022-11-13T22:37:03.511Z,101972.91
2022-11-13T22:39:48.759Z,101957.81
2022-11-13T22:42:34.031Z,101963.59
2022-11-13T22:45:23.570Z,101959.13
2022-11-13T22:48:11.262Z,101965.16
2022-11-13T22:50:56.837Z,101961.84
2022-11-13T22:53:47.505Z,101956.69
2022-11-13T22:56:34.309Z,101952.63
2022-11-13T22:59:19.736Z,101953.72
2022-11-13T23:02:05.180Z,101948.44
2022-11-13T23:04:50.657Z,101941.97
2022-11-13T23:07:36.463Z,101935.03
2022-11-13T23:10:25.391Z,101926.50
2022-11-13T23:13:10.612Z,101923.91
2022-11-13T23:15:56.433Z,101917.91
2022-11-13T23:18:42.021Z,101912.00
2022-11-13T23:21:28.630Z,101905.31
2022-11-13T23:24:13.893Z,101895.94
2022-11-13T23:26:59.030Z,101899.53
2022-11-13T23:29:48.855Z,101893.84
2022-11-13T23:32:35.304Z,101893.94
2022-11-13T23:35:20.939Z,101888.44
2022-11-13T23:38:06.006Z,101888.53
2022-11-13T23:40:55.353Z,101888.75
2022-11-13T23:44:07.700Z,101886.78
2022-11-13T23:46:46.674Z,101889.69
2022-11-13T23:49:31.934Z,101889.63
2022-11-13T23:52:17.510Z,101889.13
2022-11-13T23:55:03.135Z,101879.56
2022-11-13T23:57:55.245Z,101881.06
